Hauptseite
METAR-TAF:

METAR-TAF

Flughäfen :

Flughafen Sylt

Westerland, Deutschland

Breite: 54-55N, Länge: 008-21E, Höhe: 16 m

Beobachtung

Neuester Wetterbericht von vor 34 Minuten, um 05:20 UTC
Wind 8 kt aus Ost
Temperatur 15°C
Luftfeuchtigkeit 82%
Luftdruck 1026 hPa
Sichtweite 10 km oder mehr
keine Wolken unter 1500 m und keine Kumulonimbus oder Gewitterwolken

METAR: EDXW 240520Z 09008KT CAVOK 15/12 Q1026

Zeit: 07:54 (05:54 UTC)

Prognose

Neuester Wetterbericht von vor 12 Stunden und 54 Minuten, um 17:00 UTC
Gültige Prognose vom 23 um 18 UTC bis 23 um 21 UTC
Wind 11 kt aus Nord
Sichtweite 10 km oder mehr
keine Wolken unter 1500 m und keine Kumulonimbus oder Gewitterwolken
Übergehend zu
vom 23 um 18 UTC bis 23 um 21 UTC
Wind 9 kt aus Nordost

TAF: EDXW 231700Z 2318/2321 35011KT CAVOK BECMG 2318/2321 05009KT

Wetterbeobachtungen und Prognosen von mehr als 4000 Flughäfen (METAR und TAF Bericht).

Die verfügbaren Stationen werden durch gelbe und rote Markierungen auf der Karte dargestellt.

Führen Sie die Maus auf sie, um den Namen der Station zu sehen.

Darauf klicken, um die Beobachtung von Wetterbeobachtungen und Prognosen zu sehen.

Um die Karte zu ändern : klicken Sie auf den grünen Tasten mit einem schwarzen Kreuz Zum Vergrößern, auf den grünen Button mit einem Gedankenstrich zu verkleinern, oder auf die grünen Pfeile für benachbarte Karten.


METAR-TAF: